createdAt,value
2019-01-10T00:00:18.182Z,-1.10
2019-01-10T00:02:46.855Z,-1.10
2019-01-10T00:05:16.038Z,-1.10
2019-01-10T00:07:44.820Z,-1.00
2019-01-10T00:10:15.826Z,-0.90
2019-01-10T00:12:44.350Z,-0.90
2019-01-10T00:15:20.038Z,-0.90
2019-01-10T00:17:50.131Z,-0.90
2019-01-10T00:20:19.269Z,-0.90
2019-01-10T00:22:47.738Z,-0.80
2019-01-10T00:25:16.383Z,-0.80
2019-01-10T00:27:44.968Z,-0.70
2019-01-10T00:30:18.845Z,-0.90
2019-01-10T00:32:47.729Z,-0.80
2019-01-10T00:35:16.395Z,-0.80
2019-01-10T00:37:45.107Z,-0.80
2019-01-10T00:40:15.875Z,-1.00
2019-01-10T00:42:49.689Z,-0.90
2019-01-10T00:45:16.702Z,-0.80
2019-01-10T00:47:45.506Z,-0.80
2019-01-10T00:50:16.384Z,-0.90
2019-01-10T00:52:45.077Z,-0.90
2019-01-10T00:55:14.169Z,-0.90
2019-01-10T00:57:42.852Z,-1.00
2019-01-10T01:00:17.174Z,-0.90
2019-01-10T01:02:45.855Z,-0.90
2019-01-10T01:05:15.433Z,-0.80
2019-01-10T01:07:43.992Z,-0.90
2019-01-10T01:10:15.535Z,-1.00
2019-01-10T01:12:44.216Z,-0.90
2019-01-10T01:15:15.487Z,-1.00
2019-01-10T01:17:44.092Z,-0.90
2019-01-10T01:20:15.236Z,-0.90
2019-01-10T01:22:43.855Z,-1.00
2019-01-10T01:25:13.641Z,-1.00
2019-01-10T01:27:42.343Z,-1.00
2019-01-10T01:30:16.121Z,-1.00
2019-01-10T01:32:44.766Z,-1.00
2019-01-10T01:35:14.335Z,-1.00
2019-01-10T01:37:42.941Z,-1.10
2019-01-10T01:40:14.442Z,-1.00
2019-01-10T01:42:43.137Z,-1.00
2019-01-10T01:45:13.513Z,-1.00
2019-01-10T01:47:42.384Z,-1.00
2019-01-10T01:50:14.150Z,-1.00
2019-01-10T01:52:42.815Z,-0.90
2019-01-10T01:55:11.595Z,-1.00
2019-01-10T01:57:40.265Z,-0.90
2019-01-10T02:00:11.699Z,-0.90
2019-01-10T02:02:40.302Z,-0.90
2019-01-10T02:05:09.671Z,-0.90
2019-01-10T02:07:38.282Z,-0.90
2019-01-10T02:10:12.671Z,-1.00
2019-01-10T02:12:41.278Z,-0.90
2019-01-10T02:15:09.959Z,-0.90
2019-01-10T02:17:38.523Z,-0.90
2019-01-10T02:20:09.397Z,-1.00
2019-01-10T02:22:38.631Z,-1.00
2019-01-10T02:25:10.451Z,-0.90
2019-01-10T02:27:39.225Z,-0.90
2019-01-10T02:30:17.985Z,-0.90
2019-01-10T02:32:46.590Z,-0.80
2019-01-10T02:35:16.085Z,-0.90
2019-01-10T02:37:44.806Z,-0.80
2019-01-10T02:40:13.979Z,-0.90
2019-01-10T02:42:43.521Z,-0.80
2019-01-10T02:45:14.619Z,-0.90
2019-01-10T02:47:43.146Z,-0.90
2019-01-10T02:50:20.526Z,-1.00
2019-01-10T02:52:49.199Z,-1.00
2019-01-10T02:55:17.889Z,-1.00
2019-01-10T02:57:46.595Z,-0.90
2019-01-10T03:00:20.709Z,-1.00
2019-01-10T03:02:49.623Z,-0.90
2019-01-10T03:05:18.427Z,-0.90
2019-01-10T03:07:47.100Z,-0.90
2019-01-10T03:10:24.141Z,-0.90
2019-01-10T03:12:52.842Z,-1.00
2019-01-10T03:15:21.523Z,-0.90
2019-01-10T03:17:50.155Z,-1.00
2019-01-10T03:20:21.630Z,-0.90
2019-01-10T03:22:50.253Z,-0.90
2019-01-10T03:25:18.941Z,-0.90
2019-01-10T03:27:47.608Z,-0.90
2019-01-10T03:30:18.090Z,-0.90
2019-01-10T03:32:46.678Z,-0.90
2019-01-10T03:35:15.462Z,-0.90
2019-01-10T03:37:44.133Z,-1.00
2019-01-10T03:40:18.615Z,-1.00
2019-01-10T03:42:47.288Z,-1.00
2019-01-10T03:45:18.535Z,-1.00
2019-01-10T03:47:47.171Z,-1.10
2019-01-10T03:50:17.138Z,-1.00
2019-01-10T03:52:45.823Z,-1.00
2019-01-10T03:55:15.007Z,-1.00
2019-01-10T03:57:43.871Z,-1.00
2019-01-10T04:00:15.495Z,-1.00
2019-01-10T04:02:44.120Z,-1.00
2019-01-10T04:05:12.801Z,-1.00
2019-01-10T04:07:41.428Z,-1.00
2019-01-10T04:10:11.813Z,-1.00
2019-01-10T04:12:40.380Z,-0.90
2019-01-10T04:15:10.552Z,-1.00
2019-01-10T04:17:39.259Z,-1.00
2019-01-10T04:20:10.428Z,-1.00
2019-01-10T04:22:39.054Z,-1.10
2019-01-10T04:25:08.232Z,-1.10
2019-01-10T04:27:36.930Z,-1.10
2019-01-10T04:30:08.547Z,-1.10
2019-01-10T04:32:37.085Z,-1.10
2019-01-10T04:35:05.986Z,-1.10
2019-01-10T04:37:34.524Z,-1.20
2019-01-10T04:40:03.607Z,-1.20
2019-01-10T04:42:32.210Z,-1.10
2019-01-10T04:45:00.716Z,-1.10
2019-01-10T04:47:29.241Z,-1.10
2019-01-10T04:49:57.815Z,-1.10
2019-01-10T04:52:26.350Z,-1.00
2019-01-10T04:54:55.974Z,-1.00
2019-01-10T04:57:24.743Z,-1.10
2019-01-10T04:59:53.281Z,-1.10
2019-01-10T05:02:21.972Z,-1.10
2019-01-10T05:04:50.577Z,-1.20
2019-01-10T05:07:19.136Z,-1.10
2019-01-10T05:09:47.733Z,-1.20
2019-01-10T05:12:16.293Z,-1.20
2019-01-10T05:14:44.824Z,-1.10
2019-01-10T05:17:13.379Z,-1.10
2019-01-10T05:19:41.913Z,-1.10
2019-01-10T05:22:10.516Z,-1.20
2019-01-10T05:24:39.061Z,-1.30
2019-01-10T05:27:07.590Z,-1.20
2019-01-10T05:29:36.210Z,-1.10
2019-01-10T05:32:05.517Z,-1.10
2019-01-10T05:34:34.071Z,-1.20
2019-01-10T05:37:02.685Z,-1.10
2019-01-10T05:39:31.390Z,-1.20
2019-01-10T05:41:59.989Z,-1.20
2019-01-10T05:44:28.682Z,-1.20
2019-01-10T05:46:57.357Z,-1.30
2019-01-10T05:49:25.982Z,-1.20
2019-01-10T05:51:54.662Z,-1.10
2019-01-10T05:54:23.344Z,-1.00
2019-01-10T05:56:51.969Z,-1.00
2019-01-10T05:59:20.653Z,-1.00
2019-01-10T06:01:49.281Z,-1.10
2019-01-10T06:04:17.887Z,-1.20
2019-01-10T06:06:46.594Z,-1.20
2019-01-10T06:09:15.200Z,-1.10
2019-01-10T06:11:43.966Z,-1.10
2019-01-10T06:14:12.575Z,-1.10
2019-01-10T06:16:41.165Z,-1.10
2019-01-10T06:19:09.872Z,-1.10
2019-01-10T06:21:38.472Z,-1.10
2019-01-10T06:24:07.096Z,-1.10
2019-01-10T06:26:35.790Z,-1.10
2019-01-10T06:29:04.570Z,-1.00
2019-01-10T06:31:33.245Z,-1.10
2019-01-10T06:34:01.954Z,-1.10
2019-01-10T06:36:30.627Z,-1.10
2019-01-10T06:38:59.152Z,-1.10
2019-01-10T06:41:27.795Z,-1.20
2019-01-10T06:43:56.388Z,-1.20
2019-01-10T06:46:25.011Z,-1.10
2019-01-10T06:48:53.746Z,-1.10
2019-01-10T06:51:22.433Z,-1.20
2019-01-10T06:53:51.127Z,-1.20
2019-01-10T06:56:19.750Z,-1.10
2019-01-10T06:58:48.431Z,-1.00
2019-01-10T07:01:17.041Z,-1.00
2019-01-10T07:03:45.731Z,-1.00
2019-01-10T07:06:14.269Z,-1.10
2019-01-10T07:08:42.812Z,-1.10
2019-01-10T07:11:11.431Z,-1.00
2019-01-10T07:13:39.985Z,-1.00
2019-01-10T07:16:08.598Z,-1.10
2019-01-10T07:18:37.152Z,-1.20
2019-01-10T07:21:05.831Z,-1.20
2019-01-10T07:23:34.384Z,-1.20
2019-01-10T07:26:02.995Z,-1.10
2019-01-10T07:28:31.528Z,-1.10
2019-01-10T07:31:02.070Z,-1.10
2019-01-10T07:33:32.191Z,-1.10
2019-01-10T07:36:01.005Z,-1.00
2019-01-10T07:38:29.539Z,-1.00
2019-01-10T07:40:58.157Z,-1.00
2019-01-10T07:43:26.768Z,-1.00
2019-01-10T07:45:55.391Z,-1.00
2019-01-10T07:48:23.937Z,-1.10
2019-01-10T07:50:52.559Z,-1.20
2019-01-10T07:53:21.094Z,-1.10
2019-01-10T07:55:49.784Z,-1.00
2019-01-10T07:58:18.400Z,-1.10
2019-01-10T08:00:46.940Z,-1.10
2019-01-10T08:03:15.500Z,-1.00
2019-01-10T08:05:44.110Z,-1.00
2019-01-10T08:08:14.333Z,-1.00
2019-01-10T08:10:43.050Z,-1.10
2019-01-10T08:13:11.672Z,-1.10
2019-01-10T08:15:40.267Z,-1.10
2019-01-10T08:18:08.868Z,-1.00
2019-01-10T08:20:37.503Z,-1.10
2019-01-10T08:23:06.110Z,-1.20
2019-01-10T08:25:34.666Z,-1.10
2019-01-10T08:28:03.339Z,-1.00
2019-01-10T08:30:31.962Z,-1.00
2019-01-10T08:33:00.567Z,-1.00
2019-01-10T08:35:29.358Z,-1.00
2019-01-10T08:37:58.138Z,-1.10
2019-01-10T08:40:26.774Z,-1.00
2019-01-10T08:42:55.363Z,-1.00
2019-01-10T08:45:24.039Z,-1.00
2019-01-10T08:47:52.591Z,-1.00
2019-01-10T08:50:23.773Z,-0.90
2019-01-10T08:52:53.004Z,-0.90
2019-01-10T08:55:21.668Z,-0.90
2019-01-10T08:57:50.312Z,-0.90
2019-01-10T09:00:20.889Z,-0.90
2019-01-10T09:02:49.611Z,-1.00
2019-01-10T09:05:18.216Z,-0.90
2019-01-10T09:07:46.919Z,-0.90
2019-01-10T09:10:21.234Z,-0.90
2019-01-10T09:12:49.845Z,-0.80
2019-01-10T09:15:23.408Z,-0.80
2019-01-10T09:17:48.715Z,-0.70
2019-01-10T09:20:17.669Z,-0.80
2019-01-10T09:22:46.299Z,-0.70
2019-01-10T09:25:14.921Z,-0.70
2019-01-10T09:27:43.593Z,-0.70
2019-01-10T09:30:17.239Z,-0.70
2019-01-10T09:32:45.860Z,-0.70
2019-01-10T09:35:14.474Z,-0.70
2019-01-10T09:37:43.171Z,-0.70
2019-01-10T09:40:20.087Z,-0.80
2019-01-10T09:42:48.776Z,-0.80
2019-01-10T09:45:19.769Z,-0.80
2019-01-10T09:47:48.462Z,-0.80
2019-01-10T09:50:19.052Z,-0.70
2019-01-10T09:52:47.752Z,-0.70
2019-01-10T09:55:16.625Z,-0.80
2019-01-10T09:57:45.327Z,-0.70
2019-01-10T10:00:25.808Z,-0.80
2019-01-10T10:02:54.430Z,-0.80
2019-01-10T10:05:23.045Z,-0.70
2019-01-10T10:07:51.707Z,-0.70
2019-01-10T10:10:21.174Z,-0.70
2019-01-10T10:12:49.790Z,-0.60
2019-01-10T10:15:20.283Z,-0.60
2019-01-10T10:17:48.882Z,-0.60
2019-01-10T10:20:19.683Z,-0.60
2019-01-10T10:22:48.327Z,-0.60
2019-01-10T10:25:17.965Z,-0.60
2019-01-10T10:27:47.133Z,-0.60
2019-01-10T10:30:17.931Z,-0.60
2019-01-10T10:32:46.715Z,-0.50
2019-01-10T10:35:15.588Z,-0.50
2019-01-10T10:37:44.283Z,-0.50
2019-01-10T10:40:17.693Z,-0.40
2019-01-10T10:42:46.701Z,-0.40
2019-01-10T10:45:17.653Z,-0.40
2019-01-10T10:47:46.443Z,-0.40
2019-01-10T10:50:17.994Z,-0.40
2019-01-10T10:52:46.687Z,-0.40
2019-01-10T10:55:15.360Z,-0.40
2019-01-10T10:57:44.034Z,-0.40
2019-01-10T11:00:16.742Z,-0.40
2019-01-10T11:02:45.613Z,-0.40
2019-01-10T11:05:14.407Z,-0.40
2019-01-10T11:07:42.872Z,-0.40
2019-01-10T11:10:14.571Z,-0.40
2019-01-10T11:12:43.336Z,-0.40
2019-01-10T11:15:12.152Z,-0.40
2019-01-10T11:17:40.832Z,-0.30
2019-01-10T11:20:12.391Z,-0.30
2019-01-10T11:22:41.077Z,-0.20
2019-01-10T11:25:13.012Z,-0.20
2019-01-10T11:27:41.578Z,-0.20
2019-01-10T11:30:15.523Z,-0.10
2019-01-10T11:32:44.079Z,-0.10
2019-01-10T11:35:12.761Z,-0.20
2019-01-10T11:37:41.383Z,-0.20
2019-01-10T11:40:17.979Z,-0.20
2019-01-10T11:42:46.878Z,-0.30
2019-01-10T11:45:17.955Z,-0.20
2019-01-10T11:47:46.588Z,-0.20
2019-01-10T11:50:16.482Z,-0.10
2019-01-10T11:52:45.112Z,-0.10
2019-01-10T11:55:14.307Z,0.00
2019-01-10T11:57:43.012Z,0.00
2019-01-10T12:00:20.431Z,0.00
2019-01-10T12:02:49.101Z,0.00
2019-01-10T12:05:17.718Z,-0.10
2019-01-10T12:07:46.405Z,-0.10
2019-01-10T12:10:15.195Z,0.00
2019-01-10T12:12:43.881Z,0.00
2019-01-10T12:15:13.153Z,0.10
2019-01-10T12:17:41.819Z,0.00
2019-01-10T12:20:13.458Z,0.00
2019-01-10T12:22:42.090Z,-0.10
2019-01-10T12:25:13.158Z,-0.10
2019-01-10T12:27:41.711Z,-0.10
2019-01-10T12:30:18.939Z,-0.10
2019-01-10T12:32:47.565Z,-0.10
2019-01-10T12:35:16.336Z,-0.10
2019-01-10T12:37:44.939Z,-0.20
2019-01-10T12:40:15.276Z,-0.20
2019-01-10T12:42:44.115Z,-0.20
2019-01-10T12:45:15.269Z,-0.20
2019-01-10T12:47:43.827Z,-0.20
2019-01-10T12:50:18.334Z,-0.30
2019-01-10T12:52:47.006Z,-0.30
2019-01-10T12:55:15.645Z,-0.20
2019-01-10T12:57:44.312Z,-0.20
2019-01-10T13:00:15.786Z,-0.20
2019-01-10T13:02:44.391Z,-0.10
2019-01-10T13:05:13.587Z,-0.10
2019-01-10T13:07:42.201Z,0.00
2019-01-10T13:10:14.167Z,0.00
2019-01-10T13:12:42.837Z,0.00
2019-01-10T13:15:14.753Z,-0.10
2019-01-10T13:17:43.517Z,0.00
2019-01-10T13:20:12.914Z,0.00
2019-01-10T13:22:41.522Z,0.00
2019-01-10T13:25:12.911Z,0.00
2019-01-10T13:27:41.519Z,0.00
2019-01-10T13:30:13.155Z,0.00
2019-01-10T13:32:41.690Z,0.00
2019-01-10T13:35:10.384Z,0.00
2019-01-10T13:37:39.055Z,0.10
2019-01-10T13:40:10.038Z,0.10
2019-01-10T13:42:38.729Z,0.10
2019-01-10T13:45:10.269Z,0.10
2019-01-10T13:47:39.156Z,0.10
2019-01-10T13:50:13.713Z,0.00
2019-01-10T13:52:42.379Z,0.00
2019-01-10T13:55:13.179Z,-0.10
2019-01-10T13:57:41.776Z,-0.10
2019-01-10T14:00:19.020Z,-0.10
2019-01-10T14:02:47.633Z,-0.10
2019-01-10T14:05:16.250Z,-0.10
2019-01-10T14:07:44.887Z,-0.10
2019-01-10T14:10:15.669Z,-0.10
2019-01-10T14:12:44.338Z,-0.10
2019-01-10T14:15:16.502Z,-0.20
2019-01-10T14:17:45.198Z,-0.10
2019-01-10T14:20:14.460Z,-0.10
2019-01-10T14:22:43.096Z,-0.10
2019-01-10T14:25:11.758Z,-0.10
2019-01-10T14:27:40.555Z,-0.20
2019-01-10T14:30:18.423Z,-0.20
2019-01-10T14:32:47.241Z,-0.20
2019-01-10T14:35:16.016Z,-0.20
2019-01-10T14:37:44.710Z,-0.20
2019-01-10T14:40:13.798Z,-0.20
2019-01-10T14:42:42.401Z,-0.10
2019-01-10T14:45:13.962Z,-0.10
2019-01-10T14:47:42.580Z,-0.10
2019-01-10T14:50:12.091Z,-0.10
2019-01-10T14:52:40.762Z,-0.20
2019-01-10T14:55:11.859Z,-0.20
2019-01-10T14:57:40.546Z,-0.20
2019-01-10T15:00:17.366Z,-0.30
2019-01-10T15:02:45.981Z,-0.40
2019-01-10T15:05:14.589Z,-0.40
2019-01-10T15:07:43.286Z,-0.40
2019-01-10T15:10:12.061Z,-0.50
2019-01-10T15:12:41.919Z,-0.50
2019-01-10T15:15:19.534Z,-0.50
2019-01-10T15:17:48.153Z,-0.50
2019-01-10T15:20:25.950Z,-0.40
2019-01-10T15:22:54.754Z,-0.40
2019-01-10T15:25:23.357Z,-0.40
2019-01-10T15:27:52.839Z,-0.40
2019-01-10T15:30:23.991Z,-0.40
2019-01-10T15:32:52.666Z,-0.40
2019-01-10T15:35:21.365Z,-0.50
2019-01-10T15:37:50.148Z,-0.50
2019-01-10T15:40:27.300Z,-0.60
2019-01-10T15:42:56.059Z,-0.60
2019-01-10T15:45:24.859Z,-0.60
2019-01-10T15:47:53.454Z,-0.60
2019-01-10T15:50:22.078Z,-0.70
2019-01-10T15:52:50.754Z,-0.70
2019-01-10T15:55:21.256Z,-0.70
2019-01-10T15:57:49.859Z,-0.70
2019-01-10T16:00:23.666Z,-0.70
2019-01-10T16:02:53.076Z,-0.70
2019-01-10T16:05:21.736Z,-0.70
2019-01-10T16:07:50.739Z,-0.70
2019-01-10T16:10:20.410Z,-0.70
2019-01-10T16:12:49.752Z,-0.70
2019-01-10T16:15:23.842Z,-0.80
2019-01-10T16:17:52.545Z,-0.80
2019-01-10T16:20:21.151Z,-0.80
2019-01-10T16:22:49.760Z,-0.80
2019-01-10T16:25:19.784Z,-1.00
2019-01-10T16:27:48.640Z,-1.00
2019-01-10T16:30:28.019Z,-0.90
2019-01-10T16:32:56.699Z,-0.90
2019-01-10T16:35:25.390Z,-0.90
2019-01-10T16:37:54.067Z,-0.90
2019-01-10T16:40:22.775Z,-0.90
2019-01-10T16:42:51.652Z,-0.90
2019-01-10T16:45:25.408Z,-1.00
2019-01-10T16:47:54.090Z,-1.00
2019-01-10T16:50:22.683Z,-1.10
2019-01-10T16:52:51.307Z,-1.10
2019-01-10T16:55:19.907Z,-1.10
2019-01-10T16:57:48.585Z,-1.20
2019-01-10T17:00:22.838Z,-1.10
2019-01-10T17:02:51.385Z,-1.10
2019-01-10T17:05:19.933Z,-1.10
2019-01-10T17:07:48.554Z,-1.10
2019-01-10T17:10:17.242Z,-1.10
2019-01-10T17:12:45.925Z,-1.10
2019-01-10T17:15:15.526Z,-1.20
2019-01-10T17:17:44.138Z,-1.20
2019-01-10T17:20:21.279Z,-1.20
2019-01-10T17:22:49.889Z,-1.20
2019-01-10T17:25:18.789Z,-1.20
2019-01-10T17:27:47.562Z,-1.20
2019-01-10T17:30:21.542Z,-1.10
2019-01-10T17:32:50.083Z,-1.20
2019-01-10T17:35:21.380Z,-1.20
2019-01-10T17:37:49.999Z,-1.20
2019-01-10T17:40:20.980Z,-1.20
2019-01-10T17:42:50.043Z,-1.20
2019-01-10T17:45:24.002Z,-1.10
2019-01-10T17:47:52.566Z,-1.10
2019-01-10T17:50:21.092Z,-1.20
2019-01-10T17:52:49.794Z,-1.20
2019-01-10T17:55:18.699Z,-1.20
2019-01-10T17:57:47.878Z,-1.30
2019-01-10T18:00:29.223Z,-1.30
2019-01-10T18:02:57.964Z,-1.30
2019-01-10T18:05:26.904Z,-1.30
2019-01-10T18:07:55.601Z,-1.30
2019-01-10T18:10:24.273Z,-1.30
2019-01-10T18:12:52.878Z,-1.30
2019-01-10T18:15:23.574Z,-1.20
2019-01-10T18:17:52.193Z,-1.20
2019-01-10T18:20:26.435Z,-1.30
2019-01-10T18:22:55.118Z,-1.30
2019-01-10T18:25:23.811Z,-1.40
2019-01-10T18:27:52.351Z,-1.30
2019-01-10T18:30:22.855Z,-1.20
2019-01-10T18:32:51.558Z,-1.20
2019-01-10T18:35:26.035Z,-1.20
2019-01-10T18:37:51.297Z,-1.30
2019-01-10T18:40:20.075Z,-1.30
2019-01-10T18:42:48.701Z,-1.40
2019-01-10T18:45:28.610Z,-1.40
2019-01-10T18:47:57.549Z,-1.40
2019-01-10T18:50:26.346Z,-1.50
2019-01-10T18:52:55.036Z,-1.50
2019-01-10T18:55:23.637Z,-1.60
2019-01-10T18:57:52.203Z,-1.60
2019-01-10T19:00:23.346Z,-1.60
2019-01-10T19:02:52.039Z,-1.60
2019-01-10T19:05:20.640Z,-1.60
2019-01-10T19:07:49.239Z,-1.60
2019-01-10T19:10:20.251Z,-1.50
2019-01-10T19:12:48.925Z,-1.60
2019-01-10T19:15:17.619Z,-1.70
2019-01-10T19:17:46.235Z,-1.70
2019-01-10T19:20:17.536Z,-1.60
2019-01-10T19:22:46.143Z,-1.60
2019-01-10T19:25:14.776Z,-1.60
2019-01-10T19:27:43.378Z,-1.60
2019-01-10T19:30:14.961Z,-1.60
2019-01-10T19:32:43.578Z,-1.60
2019-01-10T19:35:12.381Z,-1.60
2019-01-10T19:37:40.988Z,-1.60
2019-01-10T19:40:12.845Z,-1.50
2019-01-10T19:42:41.534Z,-1.50
2019-01-10T19:45:12.924Z,-1.50
2019-01-10T19:47:41.524Z,-1.60
2019-01-10T19:50:13.188Z,-1.70
2019-01-10T19:52:41.722Z,-1.80
2019-01-10T19:55:12.120Z,-1.80
2019-01-10T19:57:40.809Z,-1.90
2019-01-10T20:00:30.431Z,-1.90
2019-01-10T20:02:59.030Z,-1.80
2019-01-10T20:05:27.667Z,-1.90
2019-01-10T20:07:56.335Z,-1.90
2019-01-10T20:10:25.027Z,-1.90
2019-01-10T20:12:53.705Z,-1.90
2019-01-10T20:15:22.406Z,-2.00
2019-01-10T20:17:51.032Z,-2.00
2019-01-10T20:20:31.217Z,-2.00
2019-01-10T20:23:00.206Z,-2.10
2019-01-10T20:25:28.889Z,-2.00
2019-01-10T20:27:57.510Z,-2.10
2019-01-10T20:30:26.187Z,-2.10
2019-01-10T20:32:55.356Z,-2.10
2019-01-10T20:35:23.963Z,-2.10
2019-01-10T20:37:52.599Z,-2.10
2019-01-10T20:40:21.202Z,-2.00
2019-01-10T20:42:49.735Z,-1.90
2019-01-10T20:45:18.508Z,-2.00
2019-01-10T20:47:47.177Z,-2.10
2019-01-10T20:50:16.840Z,-2.10
2019-01-10T20:52:45.455Z,-2.20
2019-01-10T20:55:15.848Z,-2.20
2019-01-10T20:57:44.540Z,-2.30
2019-01-10T21:00:18.421Z,-2.30
2019-01-10T21:02:47.102Z,-2.30
2019-01-10T21:05:15.807Z,-2.30
2019-01-10T21:07:46.058Z,-2.30
2019-01-10T21:10:17.263Z,-2.40
2019-01-10T21:12:46.139Z,-2.40
2019-01-10T21:15:22.805Z,-2.40
2019-01-10T21:17:51.437Z,-2.40
2019-01-10T21:20:20.134Z,-2.40
2019-01-10T21:22:49.471Z,-2.40
2019-01-10T21:25:18.444Z,-2.40
2019-01-10T21:27:47.117Z,-2.40
2019-01-10T21:30:18.503Z,-2.50
2019-01-10T21:32:47.912Z,-2.50
2019-01-10T21:35:16.650Z,-2.60
2019-01-10T21:37:45.351Z,-2.50
2019-01-10T21:40:16.899Z,-2.50
2019-01-10T21:42:45.508Z,-2.60
2019-01-10T21:45:17.482Z,-2.60
2019-01-10T21:47:46.159Z,-2.60
2019-01-10T21:50:17.819Z,-2.50
2019-01-10T21:52:46.446Z,-2.50
2019-01-10T21:55:15.240Z,-2.50
2019-01-10T21:57:44.117Z,-2.50
2019-01-10T22:00:31.498Z,-2.50
2019-01-10T22:03:00.839Z,-2.60
2019-01-10T22:05:29.626Z,-2.60
2019-01-10T22:07:58.328Z,-2.60
2019-01-10T22:10:28.482Z,-2.60
2019-01-10T22:12:57.115Z,-2.60
2019-01-10T22:15:37.497Z,-2.50
2019-01-10T22:18:07.215Z,-2.50
2019-01-10T22:20:35.884Z,-2.50
2019-01-10T22:23:04.789Z,-2.50
2019-01-10T22:25:33.403Z,-2.40
2019-01-10T22:28:01.959Z,-2.50
2019-01-10T22:30:30.500Z,-2.50
2019-01-10T22:32:59.270Z,-2.50
2019-01-10T22:35:27.902Z,-2.50
2019-01-10T22:37:56.675Z,-2.50
2019-01-10T22:40:25.366Z,-2.50
2019-01-10T22:42:54.047Z,-2.40
2019-01-10T22:45:23.840Z,-2.40
2019-01-10T22:47:52.655Z,-2.40
2019-01-10T22:50:22.927Z,-2.40
2019-01-10T22:52:51.595Z,-2.40
2019-01-10T22:55:20.291Z,-2.50
2019-01-10T22:57:48.890Z,-2.50
2019-01-10T23:00:28.092Z,-2.50
2019-01-10T23:03:08.460Z,-2.50
2019-01-10T23:05:44.877Z,-2.50
2019-01-10T23:08:13.576Z,-2.40
2019-01-10T23:10:42.339Z,-2.30
2019-01-10T23:13:11.239Z,-2.30
2019-01-10T23:15:39.915Z,-2.20
2019-01-10T23:18:09.178Z,-2.20
2019-01-10T23:20:37.860Z,-2.20
2019-01-10T23:23:11.836Z,-2.20
2019-01-10T23:25:40.608Z,-2.30
2019-01-10T23:28:09.580Z,-2.40
2019-01-10T23:30:50.344Z,-2.30
2019-01-10T23:33:20.029Z,-2.30
2019-01-10T23:35:52.727Z,-2.30
2019-01-10T23:38:22.916Z,-2.40
2019-01-10T23:40:51.624Z,-2.30
2019-01-10T23:43:20.225Z,-2.20
2019-01-10T23:45:48.855Z,-2.20
2019-01-10T23:48:17.471Z,-2.20
2019-01-10T23:50:46.099Z,-2.20
2019-01-10T23:53:14.775Z,-2.30
2019-01-10T23:55:43.384Z,-2.20
2019-01-10T23:58:12.000Z,-2.30
